Time;durP1;ratioP1;P1;durP2;ratioP2;P2;SDS_P1;SDS_P2;PMS_P1;PMS_P2;Temp;Humidity;BMP_temperature;BMP_pressure;BME280_temperature;BME280_humidity;BME280_pressure;Samples;Min_cycle;Max_cycle;Signal;HPM_P1;HPM_P2
2022/12/30 00:00:49;;;;;;;11.13;2.90;;;;;;;7.54;89.68;99619.06;5078515;28;20500;-68
2022/12/30 00:03:17;;;;;;;7.57;2.80;;;;;;;7.46;90.02;99625.03;5076971;28;20486;-67
2022/12/30 00:05:45;;;;;;;8.63;2.40;;;;;;;7.38;90.90;99632.88;5060941;28;20512;-67
2022/12/30 00:10:52;;;;;;;10.17;2.40;;;;;;;7.39;90.54;99623.91;5069936;28;20479;-67
2022/12/30 00:35:18;;;;;;;13.23;3.00;;;;;;;7.51;90.15;99654.75;5076082;28;20456;-67
2022/12/30 00:37:47;;;;;;;11.17;2.83;;;;;;;7.54;90.22;99661.63;5059865;28;20966;-67
2022/12/30 00:40:14;;;;;;;6.20;2.40;;;;;;;7.69;90.02;99670.03;5078834;28;21214;-67
2022/12/30 00:45:25;;;;;;;13.13;3.83;;;;;;;7.67;89.91;99672.00;5103049;28;20489;-67
2022/12/30 00:47:52;;;;;;;19.27;3.53;;;;;;;7.61;90.07;99669.91;5089965;28;20448;-68
2022/12/30 00:58:32;;;;;;;12.57;3.37;;;;;;;7.58;90.09;99681.66;5102848;28;20446;-67
2022/12/30 01:00:59;;;;;;;7.70;2.83;;;;;;;7.58;90.06;99686.13;5102045;28;20481;-68
2022/12/30 01:03:26;;;;;;;13.70;3.57;;;;;;;7.69;89.42;99689.53;5087037;28;20444;-68
2022/12/30 01:05:52;;;;;;;8.90;3.10;;;;;;;7.62;89.64;99693.72;5099838;28;20475;-68
2022/12/30 01:08:20;;;;;;;17.00;3.37;;;;;;;7.61;90.17;99693.84;5093694;28;20440;-68
2022/12/30 01:10:47;;;;;;;10.00;3.00;;;;;;;7.56;90.27;99707.53;5092382;28;20491;-67
2022/12/30 01:13:14;;;;;;;15.00;3.57;;;;;;;7.50;90.25;99710.75;5096583;28;20446;-67
2022/12/30 01:15:40;;;;;;;11.90;3.13;;;;;;;7.50;90.00;99716.06;5094119;28;20476;-67
2022/12/30 01:18:07;;;;;;;10.27;3.00;;;;;;;7.54;90.22;99712.16;5103618;28;20428;-67
2022/12/30 01:20:36;;;;;;;10.73;2.67;;;;;;;7.49;90.42;99717.03;5102428;28;20479;-67
2022/12/30 01:23:03;;;;;;;11.30;3.10;;;;;;;7.52;90.07;99714.94;5088843;28;20439;-67
2022/12/30 01:25:31;;;;;;;9.00;2.20;;;;;;;7.52;90.26;99709.63;5081902;28;20471;-67
2022/12/30 01:27:58;;;;;;;18.43;3.40;;;;;;;7.50;89.90;99716.06;5099272;28;20455;-68
2022/12/30 01:30:24;;;;;;;14.27;3.50;;;;;;;7.69;89.20;99720.59;5088548;28;20474;-67
2022/12/30 01:32:51;;;;;;;10.33;2.40;;;;;;;7.48;89.80;99728.66;5103609;28;20456;-68
2022/12/30 01:35:18;;;;;;;8.40;2.30;;;;;;;7.52;89.62;99724.75;5084855;28;20447;-68
2022/12/30 01:37:45;;;;;;;7.07;2.47;;;;;;;7.41;90.04;99728.31;5082482;28;20473;-67
2022/12/30 01:40:12;;;;;;;5.57;2.70;;;;;;;7.57;89.62;99727.00;5081367;28;20542;-67
2022/12/30 01:42:41;;;;;;;6.70;1.97;;;;;;;7.51;89.75;99739.84;5065256;28;20473;-68
2022/12/30 01:45:17;;;;;;;10.83;2.77;;;;;;;7.41;90.00;99740.78;5048670;28;20462;-67
2022/12/30 01:47:49;;;;;;;15.10;3.90;;;;;;;7.47;90.00;99745.59;5075809;28;20456;-68
2022/12/30 01:50:25;;;;;;;13.67;3.20;;;;;;;7.52;89.53;99752.19;5079587;28;20474;-67
2022/12/30 01:52:54;;;;;;;13.40;2.97;;;;;;;7.44;89.89;99754.66;5081346;28;20476;-68
2022/12/30 01:55:24;;;;;;;13.83;2.83;;;;;;;7.45;89.57;99756.38;5070698;28;20441;-68
2022/12/30 01:57:53;;;;;;;10.67;2.73;;;;;;;7.42;89.63;99750.47;5077383;28;20448;-68
2022/12/30 02:00:20;;;;;;;10.60;4.67;;;;;;;7.54;89.48;99758.22;5080775;28;20500;-68
2022/12/30 02:02:47;;;;;;;13.83;3.80;;;;;;;7.30;90.00;99755.03;5078723;28;20448;-67
2022/12/30 02:05:14;;;;;;;16.90;3.30;;;;;;;7.30;89.88;99766.50;5079634;28;20449;-67
2022/12/30 02:07:44;;;;;;;11.07;3.43;;;;;;;7.31;90.47;99767.34;5077036;28;20448;-65
2022/12/30 02:10:11;;;;;;;11.83;3.03;;;;;;;7.35;90.07;99760.78;5063885;28;20524;-64
2022/12/30 02:12:38;;;;;;;8.43;2.70;;;;;;;7.44;90.27;99767.13;5062025;28;20701;-65
2022/12/30 02:15:08;;;;;;;4.43;2.23;;;;;;;7.24;90.55;99763.50;5069459;28;20437;-65
2022/12/30 02:17:42;;;;;;;12.27;3.27;;;;;;;7.25;90.92;99768.69;5076550;28;20488;-65
2022/12/30 02:20:46;;;;;;;10.97;3.43;;;;;;;7.33;90.23;99760.91;5079720;28;20487;-65
2022/12/30 02:23:29;;;;;;;9.90;2.30;;;;;;;7.34;90.39;99767.06;5067803;28;20827;-65
2022/12/30 02:26:08;;;;;;;8.90;3.00;;;;;;;7.38;90.27;99778.28;5075516;28;20472;-65
2022/12/30 02:29:04;;;;;;;8.87;2.37;;;;;;;7.33;90.45;99768.91;5061844;28;20479;-65
2022/12/30 02:31:47;;;;;;;9.57;3.03;;;;;;;7.36;89.85;99770.47;5022559;28;20496;-65
2022/12/30 02:34:20;;;;;;;9.03;2.80;;;;;;;7.41;89.77;99762.06;5051343;28;20456;-65
2022/12/30 02:36:52;;;;;;;9.30;3.20;;;;;;;7.44;89.78;99761.81;5042493;28;20503;-64
2022/12/30 02:39:25;;;;;;;16.03;4.10;;;;;;;7.32;90.03;99769.84;5064486;28;20492;-65
2022/12/30 02:44:56;;;;;;;9.13;2.60;;;;;;;7.38;90.40;99787.13;5092816;28;20443;-65
2022/12/30 02:47:29;;;;;;;8.93;2.67;;;;;;;7.35;90.19;99774.91;5100925;28;20995;-65
2022/12/30 02:52:44;;;;;;;8.13;2.10;;;;;;;7.36;89.83;99789.09;5092052;28;20505;-65
2022/12/30 02:55:11;;;;;;;13.73;2.97;;;;;;;7.27;90.52;99789.84;5083291;28;20436;-65
2022/12/30 02:57:38;;;;;;;11.43;2.80;;;;;;;7.30;90.37;99779.78;5081495;28;20959;-65
2022/12/30 03:06:15;;;;;;;15.47;2.97;;;;;;;7.14;90.38;99782.91;5080826;28;20486;-65
2022/12/30 03:08:44;;;;;;;10.90;2.40;;;;;;;7.13;90.40;99791.00;5091285;28;20444;-65
2022/12/30 03:11:16;;;;;;;8.37;2.70;;;;;;;7.07;90.68;99791.56;5089966;28;20472;-65
2022/12/30 03:13:47;;;;;;;13.70;4.70;;;;;;;6.95;91.51;99780.13;5091244;28;20445;-65
2022/12/30 03:16:17;;;;;;;9.53;2.40;;;;;;;6.90;91.55;99785.00;5099359;28;20479;-65
2022/12/30 03:18:46;;;;;;;18.30;4.43;;;;;;;6.92;91.60;99788.34;5091453;28;20997;-66
2022/12/30 03:21:12;;;;;;;8.87;3.20;;;;;;;6.97;91.35;99791.47;5081686;28;20485;-66
2022/12/30 03:29:12;;;;;;;11.90;2.60;;;;;;;6.70;92.67;99786.63;5094101;28;20820;-66
2022/12/30 03:31:39;;;;;;;9.57;2.13;;;;;;;6.60;92.90;99792.72;5099384;28;20495;-66
2022/12/30 03:34:08;;;;;;;9.43;3.13;;;;;;;6.59;93.29;99801.66;5083769;28;20452;-66
2022/12/30 03:36:39;;;;;;;7.90;2.60;;;;;;;6.62;93.19;99794.41;5100617;28;20475;-66
2022/12/30 03:39:09;;;;;;;11.40;3.40;;;;;;;6.66;92.99;99796.66;5096490;28;20512;-66
2022/12/30 03:41:36;;;;;;;10.07;2.60;;;;;;;6.73;92.60;99799.66;5099819;28;20490;-66
2022/12/30 03:44:03;;;;;;;13.60;2.70;;;;;;;6.60;93.06;99803.34;5084268;28;20487;-66
2022/12/30 03:46:34;;;;;;;12.53;2.70;;;;;;;6.63;92.97;99806.72;5098769;28;20475;-66
2022/12/30 03:49:01;;;;;;;10.43;3.37;;;;;;;6.51;93.37;99805.91;5090471;28;20436;-66
2022/12/30 03:51:29;;;;;;;9.30;2.87;;;;;;;6.51;93.56;99803.25;5098165;28;20581;-66
2022/12/30 03:53:55;;;;;;;5.27;2.10;;;;;;;6.43;93.93;99808.34;5085784;28;20437;-66
2022/12/30 03:56:22;;;;;;;8.53;2.30;;;;;;;6.33;94.49;99800.28;5090683;28;20819;-65
2022/12/30 03:58:49;;;;;;;10.60;3.17;;;;;;;6.27;94.76;99798.97;5092178;28;20444;-66
2022/12/30 04:01:15;;;;;;;14.87;4.70;;;;;;;6.12;95.68;99798.38;5081969;28;20513;-66
2022/12/30 04:03:42;;;;;;;6.80;3.77;;;;;;;6.15;95.65;99792.00;5074806;28;20444;-65
2022/12/30 04:06:09;;;;;;;6.83;3.17;;;;;;;6.34;94.80;99800.16;5080213;28;20511;-65
2022/12/30 04:08:37;;;;;;;13.20;3.30;;;;;;;6.35;94.85;99801.88;5089767;28;20451;-66
2022/12/30 04:11:05;;;;;;;17.43;3.47;;;;;;;6.45;94.34;99801.09;5088193;28;20506;-65
2022/12/30 04:13:31;;;;;;;9.53;4.10;;;;;;;6.46;94.41;99806.28;5094863;28;20440;-65
2022/12/30 04:15:58;;;;;;;9.77;2.57;;;;;;;6.56;93.89;99814.34;5103305;28;20459;-65
2022/12/30 04:18:25;;;;;;;12.50;2.60;;;;;;;6.60;93.60;99813.13;5095775;28;20444;-65
2022/12/30 04:20:52;;;;;;;9.97;2.60;;;;;;;6.76;93.09;99818.84;5093326;28;20538;-66
2022/12/30 04:23:18;;;;;;;15.57;3.10;;;;;;;6.78;92.63;99824.88;5104624;28;20492;-66
2022/12/30 04:25:47;;;;;;;8.17;2.90;;;;;;;6.82;92.36;99833.44;5098108;28;20532;-66
2022/12/30 04:28:13;;;;;;;11.23;3.30;;;;;;;6.78;92.51;99834.66;5093740;28;20463;-66
2022/12/30 04:30:40;;;;;;;16.00;3.27;;;;;;;6.83;92.30;99840.44;5070036;28;20502;-66
2022/12/30 04:33:07;;;;;;;15.30;3.10;;;;;;;6.88;92.08;99832.09;5104334;28;20431;-65
2022/12/30 04:35:33;;;;;;;14.43;2.40;;;;;;;6.98;91.22;99838.34;5100796;28;20455;-66
2022/12/30 04:38:00;;;;;;;12.60;2.90;;;;;;;6.90;91.38;99832.81;5099365;28;20472;-66
2022/12/30 04:40:27;;;;;;;8.50;2.23;;;;;;;6.92;91.35;99825.56;5082703;28;20484;-66
2022/12/30 04:42:55;;;;;;;10.13;2.37;;;;;;;6.87;91.78;99825.09;5097774;28;20462;-66
2022/12/30 04:45:22;;;;;;;10.07;3.40;;;;;;;6.73;92.29;99815.63;5087882;28;20443;-66
2022/12/30 04:47:49;;;;;;;10.37;2.23;;;;;;;6.68;92.69;99826.59;5102949;28;20435;-66
2022/12/30 04:50:15;;;;;;;11.70;3.40;;;;;;;6.64;92.79;99841.13;5096277;28;20436;-66
2022/12/30 04:52:42;;;;;;;12.30;2.60;;;;;;;6.52;93.34;99828.84;5103283;28;20455;-66
2022/12/30 04:55:09;;;;;;;9.10;3.10;;;;;;;6.63;93.01;99833.28;5082211;28;20765;-66
2022/12/30 04:57:36;;;;;;;10.83;4.33;;;;;;;6.59;93.09;99825.53;5100806;28;20959;-66
2022/12/30 05:00:06;;;;;;;18.60;3.60;;;;;;;6.38;93.84;99827.31;5088509;28;20717;-66
2022/12/30 05:02:32;;;;;;;7.70;2.30;;;;;;;6.46;93.55;99834.63;5095384;28;20460;-66
2022/12/30 05:04:59;;;;;;;8.60;3.37;;;;;;;6.36;94.04;99838.03;5098487;28;20542;-66
2022/12/30 05:07:26;;;;;;;12.53;3.60;;;;;;;6.27;94.33;99838.78;5100673;28;20509;-66
2022/12/30 05:09:52;;;;;;;13.10;2.97;;;;;;;6.16;94.59;99847.63;5103302;28;20451;-66
2022/12/30 05:12:19;;;;;;;9.00;2.67;;;;;;;6.16;94.90;99841.44;5097381;28;20475;-66
2022/12/30 05:14:46;;;;;;;10.80;2.60;;;;;;;6.06;95.38;99841.38;5089388;28;20447;-66
2022/12/30 05:17:14;;;;;;;8.83;2.40;;;;;;;5.98;95.84;99838.47;5099202;28;20484;-66
2022/12/30 05:19:41;;;;;;;15.40;2.50;;;;;;;6.03;95.57;99849.56;5082265;28;20762;-66
2022/12/30 05:22:08;;;;;;;15.80;3.33;;;;;;;6.01;95.65;99844.38;5083374;28;20503;-66
2022/12/30 05:27:18;;;;;;;13.17;3.33;;;;;;;5.95;95.61;99852.75;5091203;28;20479;-66
2022/12/30 05:29:45;;;;;;;7.53;2.80;;;;;;;5.96;95.55;99843.06;5091559;28;20446;-66
2022/12/30 05:32:12;;;;;;;9.70;2.67;;;;;;;5.93;95.80;99838.78;5093534;28;20476;-66
2022/12/30 05:34:40;;;;;;;7.93;1.97;;;;;;;5.82;96.12;99829.03;5099812;28;20948;-66
2022/12/30 05:37:06;;;;;;;9.17;3.47;;;;;;;5.77;96.44;99833.84;5095621;28;20514;-66
2022/12/30 05:39:33;;;;;;;8.80;2.93;;;;;;;5.82;96.55;99841.44;5083919;28;20846;-66
2022/12/30 05:42:00;;;;;;;12.63;3.87;;;;;;;5.74;96.44;99842.03;5096364;28;20515;-66
2022/12/30 05:44:27;;;;;;;11.67;2.90;;;;;;;5.79;96.46;99836.38;5097796;28;20447;-66
2022/12/30 05:46:54;;;;;;;9.47;3.00;;;;;;;5.66;97.04;99836.50;5097403;28;20989;-66
2022/12/30 05:49:20;;;;;;;15.40;2.80;;;;;;;5.61;97.07;99850.09;5082035;28;20466;-66
2022/12/30 05:51:49;;;;;;;9.87;2.60;;;;;;;5.59;97.25;99844.09;5089521;28;20480;-66
2022/12/30 05:54:16;;;;;;;9.53;2.17;;;;;;;5.50;97.53;99846.59;5093652;28;20439;-66
2022/12/30 05:56:43;;;;;;;15.33;3.23;;;;;;;5.56;97.52;99841.66;5096601;28;20480;-66
2022/12/30 05:59:10;;;;;;;8.30;2.67;;;;;;;5.56;97.41;99848.78;5102632;28;20432;-66
2022/12/30 06:01:37;;;;;;;9.23;3.27;;;;;;;5.64;97.06;99852.53;5095696;28;20491;-66
2022/12/30 06:04:04;;;;;;;6.43;2.47;;;;;;;5.57;97.20;99851.31;5093829;28;20451;-66
2022/12/30 06:06:31;;;;;;;15.40;2.97;;;;;;;5.51;96.85;99857.09;5097676;28;20537;-66
2022/12/30 06:08:59;;;;;;;6.80;2.30;;;;;;;5.63;96.87;99853.47;5081470;28;20433;-66
2022/12/30 06:11:26;;;;;;;11.57;2.70;;;;;;;5.50;97.25;99857.19;5094496;28;20507;-66
2022/12/30 06:13:53;;;;;;;7.43;2.43;;;;;;;5.47;97.33;99856.47;5085425;28;20465;-66
2022/12/30 06:16:20;;;;;;;10.03;2.90;;;;;;;5.51;97.24;99848.28;5100395;28;20849;-66
2022/12/30 06:18:46;;;;;;;6.50;2.90;;;;;;;5.44;97.32;99847.91;5095525;28;20497;-66
2022/12/30 06:21:13;;;;;;;6.53;2.00;;;;;;;5.49;97.22;99848.41;5100764;28;20503;-66
2022/12/30 06:23:40;;;;;;;9.97;3.27;;;;;;;5.41;97.26;99842.84;5079343;28;20476;-66
2022/12/30 06:26:08;;;;;;;8.13;3.17;;;;;;;5.44;97.52;99850.56;5095644;28;20467;-66
2022/12/30 06:28:35;;;;;;;14.83;2.63;;;;;;;5.56;96.98;99865.53;5092342;28;20456;-66
2022/12/30 06:31:02;;;;;;;20.93;3.87;;;;;;;5.59;96.85;99854.69;5100511;28;20483;-66
2022/12/30 06:33:29;;;;;;;7.03;2.20;;;;;;;5.50;97.04;99859.84;5083933;28;20448;-66
2022/12/30 06:35:56;;;;;;;8.70;2.47;;;;;;;5.40;97.32;99857.91;5090982;28;20475;-66
2022/12/30 06:38:23;;;;;;;10.27;3.67;;;;;;;5.52;97.23;99857.91;5083318;28;20468;-65
2022/12/30 06:40:50;;;;;;;7.83;2.10;;;;;;;5.51;97.21;99849.13;5081186;28;20483;-65
2022/12/30 06:43:18;;;;;;;7.13;2.37;;;;;;;5.42;97.36;99853.34;5088236;28;20472;-66
2022/12/30 06:45:45;;;;;;;5.73;2.80;;;;;;;5.53;96.70;99838.41;5083745;28;20474;-66
2022/12/30 06:48:12;;;;;;;10.33;2.90;;;;;;;5.54;97.16;99851.56;5088023;28;20432;-66
2022/12/30 06:50:38;;;;;;;12.90;3.10;;;;;;;5.40;97.23;99846.44;5067825;28;20465;-66
2022/12/30 06:53:06;;;;;;;10.73;2.87;;;;;;;5.43;97.37;99843.56;5085152;28;20452;-66
2022/12/30 06:55:33;;;;;;;10.10;2.50;;;;;;;5.53;96.93;99851.66;5090910;28;20475;-66
2022/12/30 06:58:00;;;;;;;14.37;3.23;;;;;;;5.50;97.08;99852.72;5100393;28;20466;-66
2022/12/30 07:00:28;;;;;;;7.07;2.20;;;;;;;5.58;96.63;99857.47;5079526;28;20536;-66
2022/12/30 07:02:55;;;;;;;10.70;2.70;;;;;;;5.51;96.64;99857.09;5081229;28;20452;-66
2022/12/30 07:05:22;;;;;;;12.80;3.03;;;;;;;5.55;96.41;99849.72;5082145;28;20854;-66
2022/12/30 07:07:48;;;;;;;16.00;3.83;;;;;;;5.60;96.79;99850.22;5087212;28;20436;-66
2022/12/30 07:10:15;;;;;;;10.20;3.03;;;;;;;5.52;96.83;99842.88;5099517;28;20460;-66
2022/12/30 07:12:42;;;;;;;15.00;5.27;;;;;;;5.64;96.43;99841.06;5079929;28;20480;-66
2022/12/30 07:15:10;;;;;;;5.90;2.40;;;;;;;5.52;96.61;99845.53;5088536;28;21102;-66
2022/12/30 07:17:38;;;;;;;13.97;2.87;;;;;;;5.52;96.70;99837.56;5084297;28;21017;-66
2022/12/30 07:20:06;;;;;;;7.23;2.80;;;;;;;5.50;96.85;99842.13;5097102;28;20448;-66
2022/12/30 07:22:33;;;;;;;10.60;2.60;;;;;;;5.55;96.85;99836.47;5084553;28;20578;-66
2022/12/30 07:24:59;;;;;;;11.03;2.50;;;;;;;5.63;96.45;99829.63;5100488;28;20977;-66
2022/12/30 07:27:26;;;;;;;5.20;2.63;;;;;;;5.61;96.21;99841.31;5099509;28;20512;-66
2022/12/30 07:29:53;;;;;;;11.30;2.63;;;;;;;5.69;96.31;99838.06;5090758;28;20752;-66
2022/12/30 07:32:20;;;;;;;6.67;2.40;;;;;;;5.64;96.09;99846.34;5080140;28;20468;-65
2022/12/30 07:34:48;;;;;;;9.43;2.33;;;;;;;5.68;96.08;99850.47;5078714;28;20482;-66
2022/12/30 07:37:15;;;;;;;12.13;2.83;;;;;;;5.77;95.63;99844.44;5079892;28;21026;-65
2022/12/30 07:39:42;;;;;;;12.73;2.77;;;;;;;5.82;95.02;99836.97;5078046;28;20500;-66
2022/12/30 07:42:09;;;;;;;11.03;3.43;;;;;;;5.78;95.34;99854.13;5078138;28;20511;-66
2022/12/30 07:44:37;;;;;;;6.97;2.87;;;;;;;5.86;94.75;99842.88;5078786;28;21052;-66
2022/12/30 07:47:04;;;;;;;7.33;2.60;;;;;;;5.79;94.68;99845.16;5076898;28;20873;-66
2022/12/30 07:49:31;;;;;;;6.67;2.83;;;;;;;5.90;94.38;99846.97;5081296;28;20432;-66
2022/12/30 07:51:59;;;;;;;16.13;3.40;;;;;;;5.92;94.22;99845.06;5084667;28;20517;-66
2022/12/30 07:54:25;;;;;;;13.83;2.60;;;;;;;5.94;93.86;99843.13;5087738;28;20432;-66
2022/12/30 07:56:52;;;;;;;9.30;2.67;;;;;;;6.05;93.28;99847.63;5083329;28;20480;-66
2022/12/30 07:59:19;;;;;;;12.83;2.53;;;;;;;6.08;93.37;99846.56;5083354;28;20479;-66
2022/12/30 08:01:46;;;;;;;8.47;3.10;;;;;;;6.15;92.44;99840.63;5083211;28;20475;-66
2022/12/30 08:04:12;;;;;;;7.00;2.90;;;;;;;6.20;92.34;99829.66;5098495;28;20944;-65
2022/12/30 08:06:40;;;;;;;11.00;3.13;;;;;;;6.12;92.43;99827.59;5085882;28;20483;-65
2022/12/30 08:09:08;;;;;;;7.80;2.63;;;;;;;6.24;91.75;99817.81;5083168;28;20428;-65
2022/12/30 08:11:35;;;;;;;11.07;2.70;;;;;;;6.41;91.07;99819.94;5092222;28;20502;-66
2022/12/30 08:14:02;;;;;;;7.27;2.77;;;;;;;6.44;90.43;99823.31;5084459;28;20912;-65
2022/12/30 08:16:28;;;;;;;9.90;2.43;;;;;;;6.61;89.82;99833.41;5081169;28;20498;-66
2022/12/30 08:18:55;;;;;;;10.20;2.17;;;;;;;6.69;89.29;99833.63;5087241;28;20448;-62
2022/12/30 08:21:22;;;;;;;5.63;1.70;;;;;;;6.96;87.87;99832.28;5096116;28;20503;-62
2022/12/30 08:23:49;;;;;;;8.33;2.70;;;;;;;6.83;87.63;99831.66;5085351;28;20460;-70
2022/12/30 08:26:18;;;;;;;23.90;10.20;;;;;;;6.96;87.36;99827.84;5083496;28;20483;-70
2022/12/30 08:28:46;;;;;;;6.97;2.17;;;;;;;7.09;88.41;99824.16;5083664;28;20429;-70
2022/12/30 08:31:14;;;;;;;8.87;2.80;;;;;;;7.34;90.18;99828.22;5081319;28;20482;-72
2022/12/30 08:33:41;;;;;;;10.10;3.33;;;;;;;7.00;86.29;99831.09;5077759;28;20457;-71
2022/12/30 08:36:10;;;;;;;7.40;2.50;;;;;;;7.00;86.87;99827.59;5081183;28;20484;-68
2022/12/30 08:38:38;;;;;;;9.23;1.83;;;;;;;6.93;86.55;99820.13;5091060;28;20463;-71
2022/12/30 08:41:06;;;;;;;10.53;2.77;;;;;;;7.11;86.43;99815.06;5093877;28;20480;-71
2022/12/30 08:43:34;;;;;;;7.47;2.10;;;;;;;7.32;85.11;99800.94;5090734;28;20444;-71
2022/12/30 08:46:01;;;;;;;5.97;2.17;;;;;;;7.15;85.40;99802.34;5101175;28;20474;-71
2022/12/30 08:48:29;;;;;;;7.53;2.80;;;;;;;7.21;85.59;99795.69;5102649;28;20467;-71
2022/12/30 08:50:55;;;;;;;8.97;5.20;;;;;;;7.13;85.54;99797.19;5100408;28;20497;-72
2022/12/30 08:53:22;;;;;;;8.63;1.93;;;;;;;7.14;85.89;99792.72;5084452;28;20456;-72
2022/12/30 08:55:49;;;;;;;6.50;2.17;;;;;;;7.22;84.93;99797.38;5091192;28;20497;-73
2022/12/30 08:58:16;;;;;;;6.63;2.10;;;;;;;7.34;84.32;99783.88;5103386;28;20427;-73
2022/12/30 09:00:45;;;;;;;4.05;1.85;;;;;;;7.43;83.88;99784.91;5099113;28;20709;-73
2022/12/30 09:03:11;;;;;;;5.67;2.10;;;;;;;7.56;83.66;99783.84;5102264;28;20455;-73
2022/12/30 09:05:38;;;;;;;7.80;2.53;;;;;;;7.88;82.07;99787.22;5085144;28;20452;-73
2022/12/30 09:08:05;;;;;;;16.03;7.30;;;;;;;7.68;82.50;99778.31;5087738;28;20528;-72
2022/12/30 09:10:32;;;;;;;3.00;1.90;;;;;;;7.52;82.84;99796.56;5088321;28;20470;-72
2022/12/30 09:12:59;;;;;;;5.40;2.70;;;;;;;7.68;82.75;99780.97;5102294;28;20447;-72
2022/12/30 09:15:26;;;;;;;10.53;1.70;;;;;;;7.68;82.46;99782.78;5084008;28;20451;-72
2022/12/30 09:17:54;;;;;;;7.90;2.70;;;;;;;7.86;81.90;99783.84;5086509;28;20452;-72
2022/12/30 09:20:21;;;;;;;14.23;3.10;;;;;;;7.98;81.38;99779.25;5080003;28;20471;-73
2022/12/30 09:22:48;;;;;;;7.50;2.30;;;;;;;7.72;81.12;99771.75;5083126;28;20854;-72
2022/12/30 09:25:15;;;;;;;6.33;2.20;;;;;;;7.84;81.20;99764.50;5082079;28;20455;-72
2022/12/30 09:27:42;;;;;;;6.33;1.90;;;;;;;7.91;81.12;99765.63;5081822;28;20511;-72
2022/12/30 09:30:09;;;;;;;6.57;1.90;;;;;;;7.97;80.09;99758.94;5079334;28;20482;-72
2022/12/30 09:32:36;;;;;;;2.87;1.60;;;;;;;8.14;79.78;99744.09;5077351;28;20448;-72
2022/12/30 09:35:05;;;;;;;9.40;2.60;;;;;;;7.77;81.01;99738.56;5081337;28;20769;-72
2022/12/30 09:37:32;;;;;;;5.10;1.57;;;;;;;7.88;81.16;99736.66;5080792;28;20521;-72
2022/12/30 09:39:59;;;;;;;8.37;3.80;;;;;;;7.72;81.63;99734.50;5080910;28;20484;-72
2022/12/30 09:45:22;;;;;;;8.87;2.37;;;;;;;7.84;81.50;99737.88;5080766;28;20473;-72
2022/12/30 09:47:50;;;;;;;8.07;2.10;;;;;;;7.78;81.82;99735.78;5080671;28;20461;-72
2022/12/30 09:50:33;;;;;;;5.77;2.30;;;;;;;8.00;81.08;99734.72;5072050;28;20441;-71
2022/12/30 09:53:04;;;;;;;7.57;1.87;;;;;;;7.73;81.61;99736.16;5061541;28;20449;-72
2022/12/30 09:55:33;;;;;;;4.93;2.20;;;;;;;7.91;81.05;99724.88;5078481;28;20850;-72
2022/12/30 09:58:00;;;;;;;4.93;2.03;;;;;;;7.86;81.20;99727.97;5080227;28;20479;-71
2022/12/30 10:00:29;;;;;;;2.73;2.37;;;;;;;7.76;81.63;99719.09;5079462;28;20473;-72
2022/12/30 10:03:01;;;;;;;7.87;3.10;;;;;;;8.01;81.40;99715.09;5086728;28;20525;-72
2022/12/30 10:05:58;;;;;;;5.67;2.07;;;;;;;8.05;81.22;99710.31;5066012;28;20521;-72
2022/12/30 10:08:31;;;;;;;9.57;2.37;;;;;;;7.95;80.83;99701.47;5078110;28;20456;-72
2022/12/30 10:11:02;;;;;;;5.50;1.53;;;;;;;7.85;81.83;99694.31;5079340;28;20468;-72
2022/12/30 10:13:33;;;;;;;5.40;2.37;;;;;;;7.97;81.69;99691.53;5079979;28;20471;-72
2022/12/30 10:16:04;;;;;;;7.77;2.10;;;;;;;7.88;82.12;99682.56;5078638;28;20472;-72
2022/12/30 10:18:57;;;;;;;5.93;2.00;;;;;;;7.99;82.28;99678.94;5080242;28;20486;-65
2022/12/30 10:21:33;;;;;;;5.17;1.73;;;;;;;8.09;81.99;99672.66;5075358;28;20530;-65
2022/12/30 10:24:17;;;;;;;3.43;1.87;;;;;;;8.02;81.92;99673.31;5078142;28;21247;-66
2022/12/30 10:26:46;;;;;;;6.13;2.07;;;;;;;8.06;81.44;99672.91;5078712;28;20515;-65
2022/12/30 10:29:16;;;;;;;7.50;2.10;;;;;;;8.28;80.86;99660.31;5078263;28;20454;-65
2022/12/30 10:31:45;;;;;;;3.63;2.20;;;;;;;8.10;81.31;99657.50;5076795;28;20464;-64
2022/12/30 10:34:15;;;;;;;4.27;1.87;;;;;;;8.23;81.58;99655.41;5079097;28;20459;-64
2022/12/30 10:36:50;;;;;;;5.87;1.37;;;;;;;8.20;81.34;99645.03;5076594;28;20504;-64
2022/12/30 10:39:18;;;;;;;6.17;1.70;;;;;;;8.34;80.66;99642.94;5078839;28;21038;-65
2022/12/30 10:41:56;;;;;;;4.63;1.83;;;;;;;8.20;80.67;99629.06;5077690;28;20500;-65
2022/12/30 10:44:28;;;;;;;5.90;1.70;;;;;;;8.13;80.70;99625.28;5078197;28;20831;-65
2022/12/30 10:47:18;;;;;;;5.93;2.60;;;;;;;8.28;80.52;99613.22;5077584;28;20989;-65
2022/12/30 10:50:02;;;;;;;5.17;1.83;;;;;;;8.27;80.61;99600.06;5076910;28;20471;-65
2022/12/30 10:52:30;;;;;;;3.43;1.97;;;;;;;8.22;80.08;99579.16;5077509;28;20758;-65
2022/12/30 10:54:57;;;;;;;2.43;1.50;;;;;;;8.20;79.94;99573.16;5074178;28;20453;-64
2022/12/30 10:57:27;;;;;;;6.30;1.80;;;;;;;8.13;79.91;99558.72;5074413;28;20536;-64
2022/12/30 10:59:55;;;;;;;6.40;2.20;;;;;;;8.17;79.76;99556.63;5076788;28;20448;-64
2022/12/30 11:02:25;;;;;;;5.07;1.90;;;;;;;8.46;79.52;99559.25;5076656;28;20503;-64
2022/12/30 11:04:52;;;;;;;4.33;2.43;;;;;;;8.46;78.79;99554.75;5077297;28;20466;-65
2022/12/30 11:07:18;;;;;;;4.40;1.63;;;;;;;8.72;77.90;99539.97;5076513;28;20480;-65
2022/12/30 11:09:48;;;;;;;5.43;2.23;;;;;;;8.64;76.99;99519.38;5076755;28;20469;-65
2022/12/30 11:15:17;;;;;;;2.83;1.77;;;;;;;9.39;74.81;99501.44;5078049;28;20482;-65
2022/12/30 11:17:47;;;;;;;2.80;1.20;;;;;;;8.77;75.08;99487.06;5077039;28;20444;-65
2022/12/30 11:20:25;;;;;;;7.97;1.67;;;;;;;8.85;75.61;99485.34;5075626;28;20641;-66
2022/12/30 11:22:54;;;;;;;3.20;1.70;;;;;;;9.03;75.15;99464.03;5077826;28;20484;-65
2022/12/30 11:25:26;;;;;;;3.30;1.40;;;;;;;9.01;75.09;99462.53;5077286;28;20737;-68
2022/12/30 11:27:55;;;;;;;4.30;1.93;;;;;;;9.08;75.58;99463.59;5077817;28;20448;-66
2022/12/30 11:30:27;;;;;;;4.43;1.63;;;;;;;9.09;75.87;99459.94;5077265;28;20440;-65
2022/12/30 11:32:55;;;;;;;5.20;1.80;;;;;;;9.03;74.98;99448.06;5074974;28;20551;-66
2022/12/30 11:35:38;;;;;;;4.37;1.20;;;;;;;8.86;75.19;99446.19;5077269;28;20444;-65
2022/12/30 11:38:27;;;;;;;5.80;1.90;;;;;;;9.26;74.79;99444.13;5077810;28;20874;-65
2022/12/30 11:40:55;;;;;;;5.03;1.70;;;;;;;9.29;74.18;99436.66;5075470;28;20529;-65
2022/12/30 11:43:22;;;;;;;6.50;1.53;;;;;;;9.70;72.59;99433.47;5074868;28;20528;-65
2022/12/30 11:46:01;;;;;;;4.33;1.57;;;;;;;9.45;72.83;99424.44;5077576;28;20480;-66
2022/12/30 11:48:33;;;;;;;6.30;1.90;;;;;;;9.02;74.24;99424.19;5077990;28;20459;-66
2022/12/30 11:51:02;;;;;;;3.60;2.20;;;;;;;9.36;74.15;99412.88;5077272;28;20500;-66
2022/12/30 11:53:31;;;;;;;7.53;1.60;;;;;;;8.94;74.79;99421.44;5078119;28;20444;-65
2022/12/30 11:55:59;;;;;;;4.33;1.70;;;;;;;8.92;75.98;99424.25;5077319;28;20502;-66
2022/12/30 11:58:27;;;;;;;3.57;1.57;;;;;;;8.73;75.91;99422.56;5078308;28;20981;-64
2022/12/30 12:01:00;;;;;;;7.90;1.70;;;;;;;8.73;76.42;99408.38;5077824;28;20469;-66
2022/12/30 12:03:29;;;;;;;6.67;1.80;;;;;;;8.66;76.68;99406.34;5077243;28;20480;-65
2022/12/30 12:06:08;;;;;;;5.23;1.80;;;;;;;8.66;76.39;99417.00;5077114;28;20473;-65
2022/12/30 12:08:38;;;;;;;3.83;1.53;;;;;;;8.61;77.21;99408.59;5077569;28;20448;-65
2022/12/30 12:11:11;;;;;;;4.90;1.90;;;;;;;8.62;77.31;99412.94;5077164;28;20484;-64
2022/12/30 12:13:45;;;;;;;8.57;1.83;;;;;;;8.69;77.17;99410.50;5097944;28;20513;-64
2022/12/30 12:16:16;;;;;;;4.93;1.53;;;;;;;8.52;77.75;99411.31;5082191;28;20478;-64
2022/12/30 12:18:44;;;;;;;5.67;2.10;;;;;;;8.54;77.64;99404.88;5081637;28;20444;-65
2022/12/30 12:21:18;;;;;;;8.43;2.50;;;;;;;8.51;78.33;99407.81;5077251;28;20480;-66
2022/12/30 12:23:48;;;;;;;3.07;1.67;;;;;;;8.48;78.30;99392.13;5079351;28;20533;-65
2022/12/30 12:26:20;;;;;;;4.57;1.50;;;;;;;8.46;77.82;99397.59;5078122;28;20472;-65
2022/12/30 12:28:49;;;;;;;5.63;1.90;;;;;;;8.48;78.40;99397.44;5079376;28;20470;-64
2022/12/30 12:31:54;;;;;;;5.30;1.73;;;;;;;8.58;77.81;99397.41;5077375;28;20488;-65
2022/12/30 12:34:30;;;;;;;4.23;1.87;;;;;;;8.63;77.55;99389.81;5077481;28;20802;-66
2022/12/30 12:37:05;;;;;;;3.57;1.97;;;;;;;8.64;77.54;99380.81;5082092;28;21042;-65
2022/12/30 12:39:43;;;;;;;8.20;1.93;;;;;;;8.64;77.63;99388.81;5082526;28;20511;-65
2022/12/30 12:42:12;;;;;;;5.20;2.13;;;;;;;8.69;77.27;99378.53;5087740;28;20537;-65
2022/12/30 12:45:15;;;;;;;4.33;2.17;;;;;;;8.56;77.67;99381.56;5082128;28;20750;-65
2022/12/30 12:47:57;;;;;;;6.77;1.53;;;;;;;8.67;77.32;99364.53;5061624;28;20472;-65
2022/12/30 12:50:43;;;;;;;5.83;1.60;;;;;;;8.56;77.29;99349.59;5080532;28;20440;-65